Day Summary

11th July 2006

This table shows hourly data for the given day.

Time Temperature Rain Max Rain
Rate
Wind Pressure
Mean High Low Avg High Dom Mean High Low
GMT °C °C °C mm mm/hr mph mph Dir mb mb mb
09:00 21.8 22.2 21.6 0.0 0.0 1.0 7 1020.9 1021.0 1020.8
10:00 22.7 23.2 22.0 0.0 0.0 1.0 10 1021.2 1021.4 1021.0
11:05 23.9 24.5 23.3 0.0 0.0 0.8 6 1021.6 1021.8 1021.5
12:00 24.9 25.3 24.5 0.0 0.0 0.5 11 1021.8 1021.8 1021.7
13:00 24.9 25.5 24.1 0.0 0.0 0.6 5 1021.9 1021.9 1021.8
14:00 25.6 25.7 25.4 0.0 0.0 0.6 6 1022.0 1022.1 1022.0
15:00 25.3 25.8 24.1 0.0 0.0 0.2 6 1022.1 1022.3 1022.0
16:00 24.9 25.2 24.2 0.0 0.0 0.1 3 1022.3 1022.3 1022.3
17:05 24.4 24.9 23.7 0.0 0.0 0.1 6 1022.5 1022.5 1022.4
18:00 22.4 23.4 21.3 0.0 0.0 0.4 5 1022.6 1022.6 1022.6
19:00 20.5 21.3 19.8 0.0 0.0 0.0 4 1022.8 1023.0 1022.7
20:05 18.5 19.6 17.8 0.0 0.0 0.0 1 1023.3 1023.5 1023.1
21:00 17.1 17.7 16.7 0.0 0.0 0.0 1 1023.6 1023.6 1023.5
22:00 16.1 16.6 15.6 0.0 0.0 0.0 0 1023.6 1023.6 1023.6
23:00 14.9 15.5 14.3 0.0 0.0 0.0 0 1023.5 1023.5 1023.5
00:05 13.7 14.2 13.3 0.0 0.0 0.0 0 1023.5 1023.5 1023.5
01:00 12.8 13.3 12.5 0.0 0.0 0.0 0 1023.7 1023.8 1023.6
02:05 12.1 12.4 11.8 0.0 0.0 0.0 0 1023.6 1023.6 1023.5
03:05 11.8 11.9 11.6 0.0 0.0 0.0 0 1023.5 1023.5 1023.4
04:00 11.6 12.0 11.4 0.0 0.0 0.0 0 1023.6 1023.7 1023.5
05:00 13.2 14.2 12.3 0.0 0.0 0.0 0 1023.7 1023.8 1023.7
06:00 15.6 17.4 14.3 0.0 0.0 0.0 1 1023.9 1024.0 1023.8
07:05 20.3 21.7 18.2 0.0 0.0 0.2 7 1024.0 1024.1 1024.0
08:00 22.9 23.7 22.0 0.0 0.0 0.3 5 1024.0 1024.0 1023.9
  19.2 25.8 11.4 0.0   0.2 11   1022.9 1024.1 1020.8
27
°C
0.0
mm
51
%
Save up to $90 with Dreamhost